Time;durP1;ratioP1;P1;durP2;ratioP2;P2;SDS_P1;SDS_P2;PMS_P1;PMS_P2;Temp;Humidity;BMP_temperature;BMP_pressure;BME280_temperature;BME280_humidity;BME280_pressure;Samples;Min_cycle;Max_cycle;Signal;HPM_P1;HPM_P2
2023/05/30 00:02:15;;;;;;;7.78;2.67;;;;;;;11.37;100.00;101885.22;5045139;28;20133;-78
2023/05/30 00:04:41;;;;;;;13.32;3.40;;;;;;;11.32;100.00;101885.56;5078709;28;20744;-80
2023/05/30 00:07:06;;;;;;;15.13;3.30;;;;;;;11.28;100.00;101884.06;5075888;28;20043;-81
2023/05/30 00:09:33;;;;;;;10.63;2.85;;;;;;;11.25;100.00;101879.84;5080759;28;20050;-80
2023/05/30 00:12:00;;;;;;;9.57;3.05;;;;;;;11.25;100.00;101879.84;5070965;28;20032;-80
2023/05/30 00:14:26;;;;;;;13.93;3.65;;;;;;;11.29;100.00;101880.47;5078905;28;20503;-79
2023/05/30 00:16:52;;;;;;;9.20;2.97;;;;;;;11.29;100.00;101881.31;5086343;28;20039;-78
2023/05/30 00:19:19;;;;;;;18.80;3.67;;;;;;;11.27;100.00;101890.34;5086117;28;20055;-79
2023/05/30 00:21:46;;;;;;;13.00;3.50;;;;;;;11.18;100.00;101889.19;5070312;28;20084;-78
2023/05/30 00:24:12;;;;;;;16.08;3.53;;;;;;;11.08;100.00;101890.84;5059855;28;20517;-78
2023/05/30 00:26:38;;;;;;;11.07;3.53;;;;;;;11.02;100.00;101882.38;5094292;28;20028;-78
2023/05/30 00:29:03;;;;;;;13.88;4.05;;;;;;;10.98;100.00;101882.72;5069592;28;20024;-78
2023/05/30 00:31:30;;;;;;;17.00;4.55;;;;;;;10.98;100.00;101882.72;5073199;28;20050;-78
2023/05/30 00:33:56;;;;;;;11.00;3.65;;;;;;;10.96;100.00;101882.00;5055294;28;20042;-78
2023/05/30 00:36:22;;;;;;;14.50;4.05;;;;;;;10.98;100.00;101882.72;5062888;28;20766;-80
2023/05/30 00:38:47;;;;;;;15.45;3.33;;;;;;;10.96;100.00;101885.47;5082113;28;20024;-80
2023/05/30 00:41:13;;;;;;;12.25;3.97;;;;;;;10.97;100.00;101878.38;5080516;28;20036;-78
2023/05/30 00:43:39;;;;;;;13.30;4.57;;;;;;;11.00;100.00;101886.94;5063435;28;20032;-78
2023/05/30 00:46:06;;;;;;;10.02;3.75;;;;;;;11.02;100.00;101892.13;5090008;28;20035;-78
2023/05/30 00:48:32;;;;;;;13.48;4.47;;;;;;;10.99;100.00;101887.88;5061312;28;20035;-78
2023/05/30 00:50:58;;;;;;;10.88;3.72;;;;;;;11.01;100.00;101883.34;5047643;28;20066;-80
2023/05/30 00:53:24;;;;;;;14.25;3.33;;;;;;;11.00;100.00;101892.25;5075507;28;20028;-80
2023/05/30 00:55:50;;;;;;;13.75;4.45;;;;;;;11.00;100.00;101902.81;5069305;28;20059;-78
2023/05/30 00:58:16;;;;;;;13.30;3.45;;;;;;;10.91;100.00;101890.25;5102054;28;20872;-78
2023/05/30 01:00:42;;;;;;;15.02;3.90;;;;;;;10.64;100.00;101885.97;5083893;28;20035;-78
2023/05/30 01:03:08;;;;;;;11.00;3.80;;;;;;;10.49;100.00;101890.56;5061807;28;20109;-78
2023/05/30 01:05:35;;;;;;;11.57;3.60;;;;;;;10.45;100.00;101886.41;5078462;28;20049;-78
2023/05/30 01:08:01;;;;;;;13.43;3.50;;;;;;;10.44;100.00;101888.22;5072740;28;20032;-78
2023/05/30 01:10:30;;;;;;;9.88;2.95;;;;;;;10.51;100.00;101889.47;5070773;28;20039;-78
2023/05/30 01:13:27;;;;;;;17.77;4.18;;;;;;;10.58;100.00;101896.97;5074287;28;20106;-78
2023/05/30 01:16:03;;;;;;;12.25;3.53;;;;;;;10.51;100.00;101900.06;5073050;28;20122;-78
2023/05/30 01:18:43;;;;;;;15.88;3.90;;;;;;;10.54;100.00;101896.38;5078078;28;20040;-78
2023/05/30 01:21:11;;;;;;;16.10;4.03;;;;;;;10.53;100.00;101894.66;5054520;28;20089;-78
2023/05/30 01:24:15;;;;;;;17.42;3.97;;;;;;;10.60;100.00;101905.66;5049840;28;20486;-79
2023/05/30 01:27:20;;;;;;;14.07;3.10;;;;;;;10.44;100.00;101901.44;5072656;28;20449;-78
2023/05/30 01:29:47;;;;;;;10.13;3.25;;;;;;;10.33;100.00;101907.47;5018514;28;20040;-78
2023/05/30 01:32:14;;;;;;;15.38;3.85;;;;;;;10.26;100.00;101898.25;5048030;28;20488;-78
2023/05/30 01:34:40;;;;;;;11.20;3.67;;;;;;;10.29;100.00;101898.91;5070291;28;20032;-78
2023/05/30 01:37:06;;;;;;;17.00;4.05;;;;;;;10.47;100.00;101910.97;5069647;28;20039;-78
2023/05/30 01:39:31;;;;;;;17.73;4.13;;;;;;;10.57;100.00;101909.38;5088176;28;20035;-78
2023/05/30 01:42:12;;;;;;;8.30;3.20;;;;;;;10.75;100.00;101915.16;5088844;28;20612;-78
2023/05/30 01:44:53;;;;;;;16.88;3.28;;;;;;;10.82;100.00;101904.97;5059537;28;20036;-78
2023/05/30 01:47:28;;;;;;;6.15;2.83;;;;;;;10.79;100.00;101908.69;5070103;28;20035;-78
2023/05/30 01:50:04;;;;;;;9.65;3.20;;;;;;;10.82;100.00;101912.91;5070171;28;20040;-78
2023/05/30 01:52:32;;;;;;;11.73;2.95;;;;;;;10.84;100.00;101910.16;5087781;28;20508;-78
2023/05/30 01:55:04;;;;;;;12.23;3.85;;;;;;;10.87;100.00;101912.59;5088252;28;20028;-78
2023/05/30 01:57:32;;;;;;;14.68;4.15;;;;;;;10.92;100.00;101910.47;5079072;28;20028;-78
2023/05/30 01:59:59;;;;;;;11.52;3.67;;;;;;;10.97;100.00;101916.28;5078765;28;20120;-78
2023/05/30 02:02:25;;;;;;;9.18;3.10;;;;;;;11.00;100.00;101913.41;5082588;28;20032;-78
2023/05/30 02:04:51;;;;;;;15.57;3.10;;;;;;;10.98;100.00;101910.03;5062937;28;20066;-80
2023/05/30 02:07:17;;;;;;;15.75;4.78;;;;;;;10.96;100.00;101919.88;5077951;28;20500;-80
2023/05/30 02:09:44;;;;;;;10.60;4.35;;;;;;;11.01;100.00;101915.09;5084141;28;20028;-78
2023/05/30 02:12:11;;;;;;;13.85;3.78;;;;;;;11.01;100.00;101917.75;5081362;28;20032;-78
2023/05/30 02:14:37;;;;;;;10.93;3.55;;;;;;;10.96;100.00;101919.03;5062948;28;20040;-78
2023/05/30 02:17:03;;;;;;;11.68;3.92;;;;;;;10.90;100.00;101917.66;5066466;28;20039;-78
2023/05/30 02:19:29;;;;;;;14.27;3.90;;;;;;;10.84;100.00;101923.38;5068064;28;20401;-78
2023/05/30 02:21:55;;;;;;;15.93;4.10;;;;;;;10.75;100.00;101916.97;5068578;28;20032;-78
2023/05/30 02:24:22;;;;;;;18.00;3.20;;;;;;;10.70;100.00;101919.09;5082656;28;20358;-79
2023/05/30 02:26:48;;;;;;;15.57;3.50;;;;;;;10.70;100.00;101916.44;5074368;28;20065;-78
2023/05/30 02:29:14;;;;;;;14.10;3.17;;;;;;;10.72;100.00;101923.31;5086323;28;20031;-78
2023/05/30 02:31:40;;;;;;;20.35;4.40;;;;;;;10.79;100.00;101914.00;5072801;28;20443;-78
2023/05/30 02:34:06;;;;;;;12.30;3.58;;;;;;;10.87;100.00;101925.81;5068335;28;20097;-81
2023/05/30 02:36:32;;;;;;;12.15;3.65;;;;;;;10.90;100.00;101930.88;5047159;28;20043;-82
2023/05/30 02:39:06;;;;;;;18.98;4.20;;;;;;;10.92;100.00;101923.69;5039101;28;20066;-82
2023/05/30 02:41:33;;;;;;;10.38;3.45;;;;;;;10.90;100.00;101925.59;5067454;28;20036;-79
2023/05/30 02:43:58;;;;;;;13.32;3.45;;;;;;;10.90;100.00;101933.53;5063056;28;20067;-78
2023/05/30 02:46:25;;;;;;;11.30;3.50;;;;;;;10.90;100.00;101937.03;5079038;28;20063;-78
2023/05/30 02:48:52;;;;;;;11.20;2.95;;;;;;;10.90;100.00;101929.09;5043515;28;20040;-78
2023/05/30 02:51:17;;;;;;;13.38;4.20;;;;;;;10.85;100.00;101930.34;5048334;28;20028;-78
2023/05/30 02:53:43;;;;;;;13.27;3.90;;;;;;;10.79;100.00;101940.44;5052355;28;20032;-78
2023/05/30 02:56:10;;;;;;;11.23;3.47;;;;;;;10.72;100.00;101933.88;5086660;28;20050;-78
2023/05/30 02:58:38;;;;;;;9.25;3.63;;;;;;;10.70;100.00;101933.16;5065424;28;20062;-79
2023/05/30 03:01:24;;;;;;;15.50;3.78;;;;;;;10.63;100.00;101945.09;5080085;28;20052;-79
2023/05/30 03:03:50;;;;;;;14.07;3.85;;;;;;;10.56;100.00;101931.47;5065070;28;20032;-79
2023/05/30 03:06:39;;;;;;;24.65;4.25;;;;;;;10.48;100.00;101937.28;5076895;28;20042;-78
2023/05/30 03:09:13;;;;;;;18.25;4.50;;;;;;;10.40;100.00;101936.97;5068308;28;20055;-78
2023/05/30 03:11:39;;;;;;;17.15;5.25;;;;;;;10.33;100.00;101940.97;5067132;28;20474;-79
2023/05/30 03:14:05;;;;;;;14.65;4.32;;;;;;;10.25;100.00;101950.28;5065462;28;20035;-78
2023/05/30 03:16:31;;;;;;;13.52;4.28;;;;;;;10.25;100.00;101952.06;5062587;28;20406;-79
2023/05/30 03:18:59;;;;;;;14.30;4.82;;;;;;;10.21;100.00;101954.06;5070522;28;20064;-78
2023/05/30 03:21:25;;;;;;;15.38;3.65;;;;;;;10.17;100.00;101948.16;5069775;28;20122;-78
2023/05/30 03:23:52;;;;;;;13.10;3.95;;;;;;;10.16;100.00;101948.28;5053659;28;20031;-78
2023/05/30 03:26:22;;;;;;;14.20;4.13;;;;;;;10.03;100.00;101933.22;5062148;28;20634;-79
2023/05/30 03:28:48;;;;;;;13.52;4.05;;;;;;;9.93;100.00;101940.09;5085923;28;20040;-79
2023/05/30 03:31:20;;;;;;;14.63;3.95;;;;;;;9.88;100.00;101937.75;5085106;28;20564;-78
2023/05/30 03:33:46;;;;;;;14.23;3.92;;;;;;;9.84;100.00;101943.34;5078414;28;20063;-78
2023/05/30 03:36:13;;;;;;;13.23;4.45;;;;;;;9.77;100.00;101943.75;5075029;28;20105;-78
2023/05/30 03:38:40;;;;;;;19.75;5.40;;;;;;;9.73;100.00;101946.69;5090319;28;20386;-78
2023/05/30 03:41:06;;;;;;;18.20;4.18;;;;;;;9.72;100.00;101945.00;5064199;28;20050;-79
2023/05/30 03:43:33;;;;;;;17.95;4.88;;;;;;;9.72;100.00;101943.22;5068711;28;20043;-78
2023/05/30 03:45:59;;;;;;;22.35;4.55;;;;;;;9.80;100.00;101950.63;5071037;28;20035;-80
2023/05/30 03:48:25;;;;;;;9.63;3.75;;;;;;;9.84;100.00;101943.34;5073929;28;20028;-80
2023/05/30 03:50:50;;;;;;;13.77;3.92;;;;;;;9.87;100.00;101951.91;5060124;28;20161;-79
2023/05/30 03:53:16;;;;;;;17.42;4.53;;;;;;;9.85;100.00;101951.16;5091449;28;20043;-79
2023/05/30 03:55:42;;;;;;;15.52;4.13;;;;;;;9.84;100.00;101952.13;5087446;28;20039;-79
2023/05/30 03:58:08;;;;;;;17.00;4.40;;;;;;;9.89;100.00;101952.66;5079682;28;20055;-79
2023/05/30 04:00:33;;;;;;;14.27;4.03;;;;;;;9.91;100.00;101952.53;5079465;28;20370;-79
2023/05/30 04:03:00;;;;;;;20.52;5.00;;;;;;;10.04;100.00;101947.28;5077558;28;20028;-79
2023/05/30 04:05:26;;;;;;;11.75;3.92;;;;;;;10.14;100.00;101953.66;5063970;28;20046;-78
2023/05/30 04:07:52;;;;;;;10.07;3.58;;;;;;;10.18;100.00;101957.78;5082313;28;20039;-79
2023/05/30 04:10:18;;;;;;;11.02;3.75;;;;;;;10.22;100.00;101954.91;5100749;28;20080;-79
2023/05/30 04:12:44;;;;;;;15.23;3.72;;;;;;;10.20;100.00;101952.38;5067375;28;20032;-78
2023/05/30 04:15:11;;;;;;;9.07;3.45;;;;;;;10.18;100.00;101955.13;5065040;28;20257;-78
2023/05/30 04:17:36;;;;;;;14.75;4.43;;;;;;;10.12;100.00;101957.34;5079117;28;20497;-79
2023/05/30 04:20:09;;;;;;;13.40;4.57;;;;;;;9.92;100.00;101963.00;5083807;28;20043;-79
2023/05/30 04:22:36;;;;;;;13.35;4.43;;;;;;;9.77;100.00;101954.31;5050153;28;20044;-78
2023/05/30 04:25:03;;;;;;;16.80;3.90;;;;;;;9.73;100.00;101963.38;5083618;28;20489;-79
2023/05/30 04:27:31;;;;;;;13.80;4.35;;;;;;;9.75;100.00;101963.28;5051998;28;20162;-79
2023/05/30 04:29:57;;;;;;;23.08;4.45;;;;;;;9.79;100.00;101962.97;5068877;28;20032;-78
2023/05/30 04:32:23;;;;;;;12.93;4.60;;;;;;;9.79;100.00;101965.59;5092536;28;20509;-78
2023/05/30 04:34:48;;;;;;;13.50;3.97;;;;;;;9.78;100.00;101960.44;5070793;28;20067;-79
2023/05/30 04:37:17;;;;;;;16.98;5.70;;;;;;;9.80;100.00;101962.03;5070570;28;20049;-79
2023/05/30 04:39:44;;;;;;;10.32;4.00;;;;;;;9.78;100.00;101963.06;5063908;28;20027;-80
2023/05/30 04:42:10;;;;;;;22.27;4.15;;;;;;;9.76;100.00;101964.97;5064884;28;20032;-80
2023/05/30 04:44:39;;;;;;;14.77;4.70;;;;;;;9.77;100.00;101970.16;5064913;28;20527;-78
2023/05/30 04:47:08;;;;;;;14.95;4.63;;;;;;;9.79;100.00;101967.41;5072313;28;20039;-79
2023/05/30 04:49:34;;;;;;;21.08;4.35;;;;;;;9.79;100.00;101970.88;5052448;28;20378;-79
2023/05/30 04:52:03;;;;;;;12.80;3.50;;;;;;;9.83;100.00;101962.75;5069119;28;20060;-79
2023/05/30 04:54:29;;;;;;;16.27;4.20;;;;;;;9.91;100.00;101971.88;5066608;28;20111;-79
2023/05/30 04:56:55;;;;;;;12.25;4.18;;;;;;;9.96;100.00;101971.56;5068361;28;20024;-79
2023/05/30 04:59:21;;;;;;;10.90;3.92;;;;;;;9.99;100.00;101971.38;5044583;28;20047;-79
2023/05/30 05:01:48;;;;;;;12.65;3.90;;;;;;;10.03;100.00;101970.19;5052611;28;20493;-78
2023/05/30 05:04:16;;;;;;;16.20;4.50;;;;;;;10.08;100.00;101977.81;5085136;28;20024;-78
2023/05/30 05:06:41;;;;;;;19.95;4.93;;;;;;;10.12;100.00;101979.31;5084351;28;20046;-78
2023/05/30 05:09:07;;;;;;;16.52;4.30;;;;;;;10.15;100.00;101979.13;5104481;28;20024;-79
2023/05/30 05:11:33;;;;;;;14.98;4.20;;;;;;;10.24;100.00;101975.00;5081502;28;20028;-78
2023/05/30 05:13:59;;;;;;;12.18;4.43;;;;;;;10.28;100.00;101984.41;5069254;28;20390;-78
2023/05/30 05:16:24;;;;;;;13.23;3.97;;;;;;;10.30;100.00;101985.16;5067253;28;20023;-79
2023/05/30 05:18:50;;;;;;;9.50;3.60;;;;;;;10.34;100.00;101980.50;5069633;28;20051;-78
2023/05/30 05:21:16;;;;;;;17.73;4.07;;;;;;;10.39;100.00;101985.47;5056678;28;20048;-78
2023/05/30 05:23:42;;;;;;;15.52;4.45;;;;;;;10.36;100.00;101980.41;5036411;28;20436;-79
2023/05/30 05:26:07;;;;;;;15.90;4.65;;;;;;;10.35;100.00;101979.53;5085567;28;20123;-79
2023/05/30 05:28:33;;;;;;;12.60;4.43;;;;;;;10.34;100.00;101977.00;5050484;28;20036;-79
2023/05/30 05:30:59;;;;;;;14.18;3.60;;;;;;;10.35;100.00;101979.53;5055295;28;20028;-79
2023/05/30 05:33:25;;;;;;;14.23;3.47;;;;;;;10.39;100.00;101986.34;5080581;28;20039;-78
2023/05/30 05:35:50;;;;;;;14.20;4.45;;;;;;;10.42;100.00;101987.91;5046801;28;20482;-79
2023/05/30 05:38:16;;;;;;;16.35;4.63;;;;;;;10.47;100.00;101988.47;5068188;28;20044;-79
2023/05/30 05:40:42;;;;;;;14.15;4.05;;;;;;;10.53;100.00;101980.13;5051388;28;20410;-79
2023/05/30 05:43:08;;;;;;;14.10;4.53;;;;;;;10.63;100.00;101987.41;5068289;28;20031;-79
2023/05/30 05:45:35;;;;;;;14.02;3.80;;;;;;;10.74;100.00;101991.94;5071117;28;20051;-79
2023/05/30 05:48:01;;;;;;;18.92;4.72;;;;;;;10.86;100.00;101990.25;5032661;28;20032;-79
2023/05/30 05:50:27;;;;;;;15.35;4.57;;;;;;;10.93;100.00;101991.50;5086393;28;20036;-79
2023/05/30 05:52:52;;;;;;;17.33;3.72;;;;;;;11.03;100.00;101992.56;5068688;28;20039;-79
2023/05/30 05:55:18;;;;;;;18.92;4.45;;;;;;;11.11;100.00;101996.47;5062536;28;20504;-79
2023/05/30 05:57:44;;;;;;;21.92;4.65;;;;;;;11.13;100.00;102005.13;5049300;28;20036;-79
2023/05/30 06:00:10;;;;;;;13.05;4.35;;;;;;;11.14;100.00;101996.22;5048242;28;20031;-79
2023/05/30 06:02:40;;;;;;;18.85;4.38;;;;;;;11.18;100.00;102002.16;5051992;28;20477;-78
2023/05/30 06:05:07;;;;;;;19.60;4.60;;;;;;;11.24;100.00;102004.38;5053887;28;20052;-79
2023/05/30 06:07:34;;;;;;;10.20;3.90;;;;;;;11.28;100.00;102006.69;5053515;28;20039;-79
2023/05/30 06:10:00;;;;;;;18.85;4.15;;;;;;;11.26;100.00;102005.94;5045762;28;20067;-78
2023/05/30 06:12:25;;;;;;;16.25;4.30;;;;;;;11.32;100.00;102011.75;5045784;28;20058;-79
2023/05/30 06:14:51;;;;;;;17.60;4.30;;;;;;;11.40;100.00;102006.75;5050302;28;20643;-79
2023/05/30 06:17:17;;;;;;;14.68;4.05;;;;;;;11.38;100.00;102014.81;5069665;28;20032;-79
2023/05/30 06:19:43;;;;;;;15.35;4.70;;;;;;;11.43;100.00;102009.19;5066471;28;20048;-79
2023/05/30 06:22:08;;;;;;;14.73;4.00;;;;;;;11.53;100.00;102012.84;5075091;28;20035;-79
2023/05/30 06:24:34;;;;;;;16.75;5.25;;;;;;;11.65;100.00;102004.97;5051234;28;20055;-79
2023/05/30 06:27:00;;;;;;;16.58;4.05;;;;;;;11.72;100.00;102008.00;5033671;28;20047;-79
2023/05/30 06:29:27;;;;;;;17.33;4.03;;;;;;;11.78;100.00;102012.84;5047524;28;20031;-79
2023/05/30 06:31:54;;;;;;;17.05;4.95;;;;;;;11.78;100.00;102013.69;5064146;28;20397;-79
2023/05/30 06:34:20;;;;;;;18.55;4.13;;;;;;;11.79;100.00;102018.03;5081726;28;20031;-79
2023/05/30 06:36:45;;;;;;;16.15;4.57;;;;;;;11.86;100.00;102025.53;5033582;28;20035;-79
2023/05/30 06:39:15;;;;;;;16.02;5.03;;;;;;;11.92;100.00;102022.44;5060566;28;20039;-78
2023/05/30 06:41:45;;;;;;;26.02;5.47;;;;;;;12.00;100.00;102020.06;5076673;28;20035;-79
2023/05/30 06:44:11;;;;;;;16.23;3.95;;;;;;;12.03;100.00;102021.63;5048541;28;20036;-79
2023/05/30 06:46:37;;;;;;;12.05;3.97;;;;;;;12.08;100.00;102019.50;5059766;28;20512;-78
2023/05/30 06:49:03;;;;;;;17.67;4.57;;;;;;;12.15;100.00;102014.59;5067786;28;20040;-79
2023/05/30 06:51:30;;;;;;;13.90;4.05;;;;;;;12.20;100.00;102019.56;5039848;28;20031;-79
2023/05/30 06:53:57;;;;;;;19.52;4.35;;;;;;;12.33;100.00;102019.44;5076046;28;20082;-79
2023/05/30 06:56:23;;;;;;;16.38;4.63;;;;;;;12.38;100.00;102018.16;5085073;28;20032;-79
2023/05/30 06:58:48;;;;;;;14.70;4.03;;;;;;;12.48;100.00;102018.28;5027662;28;20033;-79
2023/05/30 07:01:15;;;;;;;13.55;4.43;;;;;;;12.52;100.00;102021.53;5067948;28;20708;-78
2023/05/30 07:03:40;;;;;;;13.20;3.45;;;;;;;12.61;100.00;102018.16;5065838;28;20094;-77
2023/05/30 07:06:06;;;;;;;16.02;4.50;;;;;;;12.64;100.00;102012.66;5066878;28;20398;-78
2023/05/30 07:08:32;;;;;;;19.33;4.28;;;;;;;12.67;100.00;102010.69;5082085;28;20043;-79
2023/05/30 07:10:57;;;;;;;14.88;5.18;;;;;;;12.75;100.00;102003.84;5046279;28;20029;-79
2023/05/30 07:13:23;;;;;;;13.73;4.25;;;;;;;12.87;100.00;102003.81;5087518;28;20036;-79
2023/05/30 07:15:49;;;;;;;14.32;4.80;;;;;;;12.97;100.00;102006.59;5084433;28;20059;-80
2023/05/30 07:18:15;;;;;;;14.38;4.40;;;;;;;13.15;100.00;102001.66;5071881;28;20043;-81
2023/05/30 07:20:40;;;;;;;12.55;3.72;;;;;;;13.40;100.00;102008.50;5059112;28;20382;-81
2023/05/30 07:23:06;;;;;;;19.05;4.25;;;;;;;13.68;100.00;102010.72;5084140;28;20052;-81
2023/05/30 07:25:32;;;;;;;12.10;3.75;;;;;;;14.04;100.00;102012.25;5068672;28;20048;-81
2023/05/30 07:27:59;;;;;;;16.70;4.57;;;;;;;14.29;100.00;102012.84;5086990;28;20434;-81
2023/05/30 07:30:24;;;;;;;16.35;5.28;;;;;;;14.56;100.00;102017.63;5079458;28;20056;-78
2023/05/30 07:32:51;;;;;;;13.57;4.40;;;;;;;14.90;100.00;102013.06;5085374;28;20110;-79
2023/05/30 07:35:16;;;;;;;18.45;4.40;;;;;;;15.13;100.00;102008.34;5088911;28;20044;-79
2023/05/30 07:37:42;;;;;;;16.42;4.13;;;;;;;15.33;100.00;102006.59;5078809;28;20375;-79
2023/05/30 07:40:08;;;;;;;15.10;3.80;;;;;;;15.49;100.00;102008.75;5068721;28;20020;-79
2023/05/30 07:42:34;;;;;;;13.60;3.80;;;;;;;15.59;100.00;102015.91;5065768;28;20047;-79
2023/05/30 07:45:00;;;;;;;12.30;3.67;;;;;;;15.68;100.00;102009.72;5088373;28;20028;-77
2023/05/30 07:47:27;;;;;;;12.43;3.60;;;;;;;15.79;100.00;102014.06;5083568;28;20791;-79
2023/05/30 07:49:53;;;;;;;11.30;3.67;;;;;;;15.68;100.00;102009.72;5083340;28;20092;-79
2023/05/30 07:52:18;;;;;;;13.05;3.47;;;;;;;15.62;100.00;102011.13;5078556;28;20028;-79
2023/05/30 07:54:44;;;;;;;19.55;5.07;;;;;;;15.62;100.00;102012.94;5088318;28;20433;-79
2023/05/30 07:57:12;;;;;;;14.07;3.72;;;;;;;15.69;100.00;102015.88;5087462;28;20032;-79
2023/05/30 07:59:41;;;;;;;14.07;4.22;;;;;;;15.71;100.00;102012.13;5060261;28;20039;-79
2023/05/30 08:02:07;;;;;;;15.65;4.07;;;;;;;15.78;100.00;102019.56;5078652;28;20101;-78
2023/05/30 08:04:33;;;;;;;12.07;3.95;;;;;;;15.75;100.00;102010.84;5062486;28;20036;-79
2023/05/30 08:06:58;;;;;;;14.27;4.47;;;;;;;15.81;100.00;102012.13;5085602;28;20381;-79
2023/05/30 08:09:24;;;;;;;12.93;4.25;;;;;;;15.85;100.00;102015.31;5061493;28;20037;-78
2023/05/30 08:11:50;;;;;;;17.55;4.15;;;;;;;15.89;100.00;102014.09;5090707;28;20067;-78
2023/05/30 08:14:16;;;;;;;11.90;3.75;;;;;;;15.93;100.00;102010.13;5068490;28;20047;-80
2023/05/30 08:16:42;;;;;;;12.23;4.60;;;;;;;15.95;100.00;102008.19;5083557;28;20032;-80
2023/05/30 08:19:08;;;;;;;13.80;3.85;;;;;;;16.02;100.00;102012.97;5075793;28;20044;-80
2023/05/30 08:21:36;;;;;;;20.40;3.88;;;;;;;16.12;100.00;102019.13;5084933;28;20032;-78
2023/05/30 08:24:02;;;;;;;13.52;3.33;;;;;;;16.15;100.00;102018.84;5089046;28;20035;-78
2023/05/30 08:26:31;;;;;;;9.68;3.20;;;;;;;16.13;100.00;102018.16;5053288;28;20077;-78
2023/05/30 08:28:58;;;;;;;9.57;3.50;;;;;;;16.06;100.00;102017.03;5088029;28;20034;-78
2023/05/30 08:31:24;;;;;;;10.90;3.28;;;;;;;16.09;100.00;102017.59;5055597;28;20043;-78
2023/05/30 08:33:50;;;;;;;9.48;3.35;;;;;;;16.01;100.00;102003.31;5069868;28;20036;-78
2023/05/30 08:36:16;;;;;;;14.65;3.00;;;;;;;16.11;100.00;102010.31;5073248;28;20039;-78
2023/05/30 08:38:42;;;;;;;11.43;3.58;;;;;;;16.17;100.00;102003.53;5056523;28;20428;-78
2023/05/30 08:41:09;;;;;;;13.02;3.60;;;;;;;16.21;100.00;102002.25;5058349;28;20029;-78
2023/05/30 08:43:35;;;;;;;14.65;2.88;;;;;;;16.29;100.00;102003.38;5050939;28;20269;-78
2023/05/30 08:46:04;;;;;;;11.20;3.05;;;;;;;16.41;100.00;102004.06;5069457;28;20481;-78
2023/05/30 08:48:31;;;;;;;10.95;3.20;;;;;;;16.45;100.00;102000.13;5056250;28;20035;-78
2023/05/30 08:50:58;;;;;;;10.23;3.22;;;;;;;16.52;100.00;102003.03;5089868;28;20059;-78
2023/05/30 08:53:36;;;;;;;11.50;3.22;;;;;;;16.58;100.00;102003.28;5008911;28;20032;-78
2023/05/30 08:56:07;;;;;;;11.80;2.97;;;;;;;16.57;100.00;102008.78;5050756;28;20028;-78
2023/05/30 08:58:37;;;;;;;15.13;3.35;;;;;;;16.59;100.00;102006.81;5088367;28;20027;-78
2023/05/30 09:01:04;;;;;;;11.32;3.00;;;;;;;16.65;100.00;101989.38;5066568;28;20036;-78
2023/05/30 09:03:31;;;;;;;9.05;3.05;;;;;;;16.60;100.00;101997.81;5069904;28;20190;-78
2023/05/30 09:05:57;;;;;;;12.73;3.67;;;;;;;16.57;100.00;102000.78;5054182;28;20093;-78
2023/05/30 09:08:26;;;;;;;12.48;2.80;;;;;;;16.66;100.00;102001.75;5069021;28;20036;-78
2023/05/30 09:10:56;;;;;;;14.18;3.03;;;;;;;16.71;100.00;101997.63;5066683;28;20036;-78
2023/05/30 09:13:22;;;;;;;8.82;3.38;;;;;;;16.70;100.00;101992.44;5036803;28;20027;-78
2023/05/30 09:15:48;;;;;;;11.05;2.70;;;;;;;16.77;100.00;101990.84;5067675;28;20028;-78
2023/05/30 09:18:14;;;;;;;10.10;3.90;;;;;;;16.74;100.00;101994.66;5070873;28;20044;-78
2023/05/30 09:20:41;;;;;;;10.90;3.75;;;;;;;16.85;100.00;101990.97;5037440;28;20031;-79
2023/05/30 09:23:07;;;;;;;12.20;3.72;;;;;;;16.90;100.00;101989.69;5057644;28;20065;-78
2023/05/30 09:25:44;;;;;;;10.48;3.33;;;;;;;17.14;100.00;101989.16;5061067;28;20044;-78
2023/05/30 09:28:11;;;;;;;13.73;3.75;;;;;;;17.15;100.00;101996.19;5071316;28;20028;-78
2023/05/30 09:30:56;;;;;;;13.85;3.42;;;;;;;17.31;100.00;101997.38;5082791;28;20047;-78
2023/05/30 09:33:22;;;;;;;12.90;3.75;;;;;;;17.30;100.00;101990.31;5078243;28;20082;-78
2023/05/30 09:35:56;;;;;;;9.98;2.92;;;;;;;17.35;100.00;101991.56;5048215;28;20059;-79
2023/05/30 09:38:24;;;;;;;11.13;3.00;;;;;;;17.32;100.00;101999.03;5066199;28;20028;-78
2023/05/30 09:40:55;;;;;;;8.77;2.80;;;;;;;17.36;100.00;101993.22;5056498;28;20123;-78
2023/05/30 09:43:34;;;;;;;8.77;3.17;;;;;;;17.44;100.00;101989.78;5050678;28;20127;-78
2023/05/30 09:46:05;;;;;;;14.10;3.30;;;;;;;17.49;100.00;101986.66;5079461;28;20032;-78
2023/05/30 09:48:31;;;;;;;10.73;3.30;;;;;;;17.53;100.00;101981.88;5087935;28;20028;-78
2023/05/30 09:51:01;;;;;;;11.95;2.90;;;;;;;17.69;100.00;101968.66;5085670;28;20031;-78
2023/05/30 09:53:30;;;;;;;13.85;3.45;;;;;;;17.76;100.00;101981.41;5043509;28;20048;-78
2023/05/30 09:55:57;;;;;;;11.10;2.55;;;;;;;17.79;100.00;101971.22;5034500;28;20034;-78
2023/05/30 09:58:23;;;;;;;10.60;2.80;;;;;;;17.90;100.00;101978.16;5064558;28;20042;-78
2023/05/30 10:00:51;;;;;;;9.32;3.85;;;;;;;17.97;100.00;101976.56;5043892;28;20038;-78
2023/05/30 10:03:19;;;;;;;10.68;3.20;;;;;;;17.98;100.00;101967.53;5065702;28;20042;-78
2023/05/30 10:05:45;;;;;;;11.65;2.60;;;;;;;18.10;100.00;101968.13;5088251;28;20028;-78
2023/05/30 10:08:11;;;;;;;15.98;3.45;;;;;;;18.26;100.00;101963.03;5068147;28;20474;-78
2023/05/30 10:10:39;;;;;;;10.30;3.15;;;;;;;18.35;100.00;101967.44;5050812;28;20040;-78
2023/05/30 10:13:04;;;;;;;14.55;2.95;;;;;;;18.41;100.00;101971.34;5064367;28;20433;-78
2023/05/30 10:15:30;;;;;;;13.77;2.83;;;;;;;18.46;100.00;101975.22;5063305;28;20071;-78
2023/05/30 10:18:01;;;;;;;16.00;3.33;;;;;;;18.56;100.00;101972.41;5046092;28;20576;-77
2023/05/30 10:20:28;;;;;;;14.75;3.50;;;;;;;18.61;100.00;101966.59;5042892;28;20063;-78
2023/05/30 10:22:56;;;;;;;17.98;3.38;;;;;;;18.60;100.00;101972.94;5057151;28;20042;-78
2023/05/30 10:25:26;;;;;;;12.45;3.10;;;;;;;18.62;100.00;101981.63;5044203;28;20090;-78
2023/05/30 10:27:53;;;;;;;14.82;2.75;;;;;;;18.65;100.00;101975.97;5052266;28;20032;-78
2023/05/30 10:30:25;;;;;;;12.05;3.63;;;;;;;18.77;100.00;101976.53;5085169;28;20500;-78
2023/05/30 10:33:06;;;;;;;10.07;3.67;;;;;;;18.82;100.00;101978.72;5065876;28;20055;-78
2023/05/30 10:35:34;;;;;;;11.02;3.30;;;;;;;18.87;100.00;101976.41;5068437;28;20040;-78
2023/05/30 10:38:01;;;;;;;9.73;3.00;;;;;;;18.90;100.00;101968.03;5032004;28;20051;-79
2023/05/30 10:40:30;;;;;;;14.02;3.67;;;;;;;18.92;100.00;101968.69;5040184;28;20470;-78
2023/05/30 10:43:34;;;;;;;10.13;3.00;;;;;;;18.97;100.00;101968.22;5057803;28;20024;-78
2023/05/30 10:46:21;;;;;;;10.70;2.95;;;;;;;19.07;100.00;101966.25;5006996;28;20790;-78
2023/05/30 10:48:55;;;;;;;10.10;3.53;;;;;;;19.24;100.00;101963.63;5088037;28;20028;-78
2023/05/30 10:51:21;;;;;;;11.68;2.83;;;;;;;19.39;100.00;101961.13;5079943;28;20123;-78
2023/05/30 10:53:48;;;;;;;12.45;3.63;;;;;;;19.51;100.00;101960.81;5057795;28;20054;-78
2023/05/30 10:56:28;;;;;;;10.43;2.85;;;;;;;19.54;100.00;101958.63;5069543;28;20032;-78
2023/05/30 10:58:55;;;;;;;11.45;2.97;;;;;;;19.44;100.00;101948.06;5063064;28;20043;-78
2023/05/30 11:01:26;;;;;;;17.83;3.42;;;;;;;19.55;100.00;101941.53;5060744;28;20039;-78
2023/05/30 11:04:12;;;;;;;15.23;3.95;;;;;;;19.65;100.00;101951.25;5085642;28;20031;-77
2023/05/30 11:06:42;;;;;;;8.82;2.95;;;;;;;19.72;100.00;101944.19;5050233;28;20386;-80
2023/05/30 11:09:11;;;;;;;9.68;2.72;;;;;;;19.78;98.35;101950.75;5053915;28;20032;-81
2023/05/30 11:11:40;;;;;;;6.70;2.28;;;;;;;19.90;96.17;101944.03;5076009;28;20052;-78
2023/05/30 11:14:07;;;;;;;8.13;2.40;;;;;;;19.85;96.18;101941.00;5053767;28;20502;-78
2023/05/30 11:16:48;;;;;;;12.55;4.07;;;;;;;19.93;91.62;101942.84;5088385;28;20039;-81